Time;durP1;ratioP1;P1;durP2;ratioP2;P2;SDS_P1;SDS_P2;PMS_P1;PMS_P2;Temp;Humidity;BMP_temperature;BMP_pressure;BME280_temperature;BME280_humidity;BME280_pressure;Samples;Min_cycle;Max_cycle;Signal;HPM_P1;HPM_P2
2022/08/17 00:01:19;;;;;;;4.18;3.78;;;25.10;55.70;;;;;;5013390;28;20385;-73
2022/08/17 00:03:46;;;;;;;5.45;4.30;;;25.00;55.70;;;;;;5013051;28;20435;-73
2022/08/17 00:06:22;;;;;;;5.25;4.07;;;25.10;55.80;;;;;;4995743;28;20397;-73
2022/08/17 00:08:52;;;;;;;5.15;4.65;;;25.00;55.70;;;;;;4995600;28;20410;-73
2022/08/17 00:11:29;;;;;;;4.65;4.10;;;25.00;55.80;;;;;;5013098;28;20401;-73
2022/08/17 00:13:59;;;;;;;4.00;3.60;;;25.00;55.70;;;;;;4995374;28;20411;-73
2022/08/17 00:16:36;;;;;;;4.53;4.13;;;25.10;55.80;;;;;;5013118;28;20396;-74
2022/08/17 00:19:05;;;;;;;5.05;4.53;;;25.00;55.70;;;;;;4995435;28;20762;-74
2022/08/17 00:21:33;;;;;;;4.78;4.38;;;25.00;55.70;;;;;;5012977;28;20408;-74
2022/08/17 00:23:59;;;;;;;4.75;4.28;;;25.00;55.80;;;;;;5012712;28;20427;-73
2022/08/17 00:26:26;;;;;;;5.00;4.50;;;25.00;55.80;;;;;;5012808;28;20393;-74
2022/08/17 00:28:52;;;;;;;4.35;4.00;;;25.00;55.80;;;;;;4994911;28;20912;-74
2022/08/17 00:31:18;;;;;;;6.38;4.07;;;25.00;55.70;;;;;;4995189;28;20393;-73
2022/08/17 00:33:44;;;;;;;4.30;3.90;;;25.00;55.80;;;;;;5011354;28;20414;-73
2022/08/17 00:36:12;;;;;;;4.53;4.13;;;25.00;56.00;;;;;;5012734;28;20381;-73
2022/08/17 00:38:38;;;;;;;5.10;4.28;;;25.00;55.90;;;;;;4994890;28;20562;-74
2022/08/17 00:41:11;;;;;;;4.70;4.03;;;25.00;55.90;;;;;;5012676;28;20949;-74
2022/08/17 00:43:42;;;;;;;6.33;4.47;;;25.00;55.90;;;;;;5011846;28;20431;-73
2022/08/17 00:46:25;;;;;;;12.63;4.17;;;25.00;55.70;;;;;;4995035;28;20401;-74
2022/08/17 00:48:51;;;;;;;13.73;4.63;;;25.00;56.40;;;;;;5012571;28;20389;-73
2022/08/17 00:51:35;;;;;;;9.63;4.28;;;25.00;55.90;;;;;;5012552;28;20408;-74
2022/08/17 00:54:05;;;;;;;7.72;4.38;;;25.00;55.80;;;;;;5012374;28;20381;-74
2022/08/17 00:56:36;;;;;;;7.60;4.28;;;25.00;55.80;;;;;;4998033;28;20394;-72
2022/08/17 00:59:04;;;;;;;6.70;4.28;;;25.00;55.80;;;;;;5012364;28;20385;-73
2022/08/17 01:01:31;;;;;;;5.38;4.60;;;25.00;55.80;;;;;;5012429;28;20388;-73
2022/08/17 01:03:57;;;;;;;8.25;4.70;;;24.90;55.80;;;;;;5011959;28;20417;-74
2022/08/17 01:06:24;;;;;;;6.20;5.00;;;25.00;55.80;;;;;;5012341;28;21018;-72
2022/08/17 01:08:52;;;;;;;6.00;4.80;;;25.00;55.90;;;;;;5012203;28;20399;-73
2022/08/17 01:11:19;;;;;;;7.65;4.38;;;24.90;55.90;;;;;;5012264;28;20464;-73
2022/08/17 01:13:46;;;;;;;7.88;4.93;;;24.90;55.80;;;;;;5012089;28;20443;-73
2022/08/17 01:16:27;;;;;;;6.03;4.40;;;24.90;55.70;;;;;;5012189;28;20409;-73
2022/08/17 01:18:57;;;;;;;7.75;4.50;;;24.90;55.70;;;;;;4994531;28;20761;-73
2022/08/17 01:21:38;;;;;;;5.60;4.70;;;24.90;55.60;;;;;;5012145;28;20393;-73
2022/08/17 01:24:04;;;;;;;5.70;4.55;;;24.90;55.60;;;;;;4994347;28;20421;-73
2022/08/17 01:26:31;;;;;;;5.30;4.80;;;24.90;55.50;;;;;;5011976;28;20425;-73
2022/08/17 01:28:59;;;;;;;5.95;4.80;;;24.90;55.50;;;;;;5011990;28;20407;-73
2022/08/17 01:31:29;;;;;;;4.72;4.30;;;24.90;55.50;;;;;;5011986;28;20910;-73
2022/08/17 01:33:58;;;;;;;5.80;4.40;;;24.90;55.50;;;;;;5011907;28;20400;-73
2022/08/17 01:36:24;;;;;;;5.30;4.80;;;24.90;55.50;;;;;;5011947;28;20393;-73
2022/08/17 01:38:50;;;;;;;6.00;4.50;;;24.90;55.50;;;;;;5011765;28;20494;-74
2022/08/17 01:41:16;;;;;;;5.25;4.72;;;24.90;55.80;;;;;;5011935;28;20749;-73
2022/08/17 01:44:00;;;;;;;5.03;4.55;;;24.90;55.50;;;;;;4994120;28;20404;-73
2022/08/17 01:46:29;;;;;;;5.57;4.80;;;24.90;55.50;;;;;;5011906;28;20396;-73
2022/08/17 01:48:56;;;;;;;5.50;4.00;;;24.90;55.40;;;;;;4994237;28;20746;-73
2022/08/17 01:51:25;;;;;;;4.75;4.35;;;24.90;55.50;;;;;;5011809;28;20404;-73
2022/08/17 01:53:56;;;;;;;4.45;4.05;;;24.90;55.50;;;;;;5011597;28;20413;-73
2022/08/17 01:56:24;;;;;;;5.13;4.35;;;24.80;55.40;;;;;;5014933;28;20396;-73
2022/08/17 01:58:51;;;;;;;4.25;3.85;;;24.90;55.50;;;;;;5015602;28;20518;-73
2022/08/17 02:01:27;;;;;;;4.35;3.95;;;24.90;55.50;;;;;;5015702;28;20385;-73
2022/08/17 02:03:53;;;;;;;4.90;4.13;;;24.90;55.50;;;;;;5015400;28;20405;-73
2022/08/17 02:06:19;;;;;;;4.65;4.15;;;24.80;55.30;;;;;;5015564;28;20397;-73
2022/08/17 02:08:45;;;;;;;5.90;4.10;;;24.80;55.40;;;;;;5015424;28;20388;-73
2022/08/17 02:11:15;;;;;;;4.60;3.92;;;24.80;55.40;;;;;;5015422;28;20403;-73
2022/08/17 02:13:46;;;;;;;4.00;3.70;;;24.80;55.30;;;;;;5015320;28;20451;-73
2022/08/17 02:16:13;;;;;;;4.80;4.35;;;24.80;55.50;;;;;;5015362;28;20447;-73
2022/08/17 02:18:38;;;;;;;4.60;4.20;;;24.80;55.30;;;;;;5014992;28;20393;-73
2022/08/17 02:21:05;;;;;;;5.95;4.18;;;24.80;55.30;;;;;;5015139;28;20412;-73
2022/08/17 02:23:35;;;;;;;4.90;4.40;;;24.80;55.40;;;;;;5013896;28;20431;-73
2022/08/17 02:26:01;;;;;;;4.73;4.10;;;24.80;55.50;;;;;;5013869;28;20781;-73
2022/08/17 02:28:27;;;;;;;4.60;4.20;;;24.80;55.40;;;;;;5013857;28;20668;-72
2022/08/17 02:30:55;;;;;;;5.00;4.50;;;24.80;55.30;;;;;;4997274;28;20847;-73
2022/08/17 02:33:21;;;;;;;5.07;4.22;;;24.80;55.40;;;;;;5015001;28;20427;-74
2022/08/17 02:35:47;;;;;;;4.60;3.97;;;24.80;55.40;;;;;;5014887;28;20439;-73
2022/08/17 02:38:13;;;;;;;4.43;4.00;;;24.80;55.50;;;;;;5014685;28;20502;-74
2022/08/17 02:40:39;;;;;;;4.40;4.00;;;24.80;55.40;;;;;;5013630;28;20424;-74
2022/08/17 02:43:06;;;;;;;4.30;3.78;;;24.80;55.50;;;;;;5014742;28;20401;-73
2022/08/17 02:45:32;;;;;;;4.28;3.88;;;24.80;55.50;;;;;;4997009;28;20777;-73
2022/08/17 02:47:58;;;;;;;4.07;3.67;;;24.80;55.90;;;;;;5014755;28;20450;-73
2022/08/17 02:50:24;;;;;;;4.20;3.80;;;24.80;55.40;;;;;;5014247;28;20877;-73
2022/08/17 02:52:51;;;;;;;4.25;3.90;;;24.80;55.40;;;;;;5014521;28;20455;-73
2022/08/17 02:55:20;;;;;;;4.03;3.63;;;24.80;55.50;;;;;;5010174;28;20397;-73
2022/08/17 02:57:46;;;;;;;4.30;3.90;;;24.80;56.10;;;;;;5012367;28;20535;-73
2022/08/17 03:00:17;;;;;;;4.20;3.67;;;24.70;55.40;;;;;;5014542;28;21047;-73
2022/08/17 03:02:43;;;;;;;4.50;4.07;;;24.80;55.50;;;;;;5014199;28;20385;-75
2022/08/17 03:08:31;;;;;;;6.65;4.05;;;24.70;55.60;;;;;;4998986;28;20897;-74
2022/08/17 03:10:56;;;;;;;4.77;3.80;;;24.70;55.80;;;;;;4977306;28;20390;-74
2022/08/17 03:13:22;;;;;;;4.63;4.23;;;24.80;55.90;;;;;;4993467;28;20485;-74
2022/08/17 03:15:48;;;;;;;7.65;6.60;;;24.80;56.40;;;;;;4994719;28;20426;-74
2022/08/17 03:18:18;;;;;;;5.70;4.50;;;24.80;57.20;;;;;;4977623;28;20913;-74
2022/08/17 03:20:44;;;;;;;6.40;5.78;;;24.80;56.60;;;;;;4994622;28;20820;-74
2022/08/17 03:23:10;;;;;;;8.33;6.23;;;24.80;57.50;;;;;;4977137;28;20430;-74
2022/08/17 03:25:40;;;;;;;10.00;5.20;;;24.90;57.70;;;;;;4994498;28;20444;-70
2022/08/17 03:28:06;;;;;;;11.50;6.75;;;24.90;57.50;;;;;;4994985;28;20395;-75
2022/08/17 03:30:32;;;;;;;19.58;7.63;;;24.90;57.60;;;;;;4994418;28;20387;-75
2022/08/17 03:33:01;;;;;;;14.27;9.50;;;25.00;58.30;;;;;;4994362;28;20433;-76
2022/08/17 03:35:30;;;;;;;11.85;10.57;;;25.00;58.60;;;;;;4994377;28;20406;-75
2022/08/17 03:37:56;;;;;;;10.70;9.60;;;25.10;59.00;;;;;;4994163;28;20460;-74
2022/08/17 03:40:22;;;;;;;11.30;10.20;;;25.10;58.80;;;;;;4994895;28;20398;-75
2022/08/17 03:42:47;;;;;;;12.23;9.32;;;25.10;58.80;;;;;;4994244;28;20395;-75
2022/08/17 03:56:40;;;;;;;11.32;10.27;;;25.10;57.80;;;;;;4993751;28;20426;-76
2022/08/17 03:58:59;;;;;;;11.70;8.05;;;25.10;59.00;;;;;;4993379;28;20417;-74
2022/08/17 04:01:25;;;;;;;9.97;6.80;;;25.10;57.70;;;;;;4993719;28;20932;-74
2022/08/17 04:03:51;;;;;;;9.52;5.63;;;25.10;57.80;;;;;;4993517;28;20403;-75
2022/08/17 04:06:16;;;;;;;9.90;4.95;;;25.00;57.10;;;;;;4993388;28;20404;-75
2022/08/17 04:08:42;;;;;;;11.23;4.80;;;25.00;56.10;;;;;;4993334;28;20502;-76
2022/08/17 04:11:08;;;;;;;13.98;5.03;;;25.00;55.80;;;;;;4993702;28;20403;-75
2022/08/17 04:13:34;;;;;;;9.45;4.78;;;24.90;54.80;;;;;;4993777;28;20402;-74
2022/08/17 04:16:00;;;;;;;10.40;5.67;;;24.90;55.10;;;;;;4993271;28;20499;-72
2022/08/17 04:18:26;;;;;;;12.90;5.05;;;24.80;54.80;;;;;;4993143;28;20807;-72
2022/08/17 04:20:51;;;;;;;11.55;5.30;;;24.80;54.80;;;;;;4993289;28;20474;-72
2022/08/17 04:23:17;;;;;;;14.13;5.37;;;24.80;54.70;;;;;;4993421;28;20880;-72
2022/08/17 04:25:47;;;;;;;10.13;5.78;;;24.80;54.80;;;;;;4993449;28;20411;-72
2022/08/17 04:28:15;;;;;;;10.15;5.30;;;24.80;54.70;;;;;;4976101;28;20542;-73
2022/08/17 04:30:40;;;;;;;10.27;5.25;;;24.80;54.70;;;;;;4992836;28;20489;-73
2022/08/17 04:33:16;;;;;;;7.25;4.95;;;24.80;54.80;;;;;;4993321;28;20481;-73
2022/08/17 04:35:47;;;;;;;8.93;5.10;;;24.80;54.80;;;;;;4993091;28;20390;-72
2022/08/17 04:38:16;;;;;;;8.00;4.88;;;24.80;54.70;;;;;;4992729;28;20407;-73
2022/08/17 04:43:29;;;;;;;9.43;5.30;;;24.80;54.80;;;;;;4994748;28;20393;-73
2022/08/17 04:46:01;;;;;;;8.27;5.50;;;24.80;54.80;;;;;;4993149;28;20472;-72
2022/08/17 04:48:39;;;;;;;6.30;5.70;;;24.80;54.90;;;;;;4993184;28;20553;-73
2022/08/17 04:51:11;;;;;;;6.00;5.40;;;24.80;55.00;;;;;;4993004;28;20867;-74
2022/08/17 04:53:38;;;;;;;7.03;6.13;;;24.70;54.90;;;;;;4993172;28;20399;-72
2022/08/17 04:56:04;;;;;;;6.50;5.87;;;24.80;55.00;;;;;;4992950;28;20992;-72
2022/08/17 04:58:30;;;;;;;7.60;5.95;;;24.80;55.00;;;;;;4991684;28;20478;-73
2022/08/17 05:00:56;;;;;;;7.53;6.55;;;24.70;55.00;;;;;;4992746;28;20426;-72
2022/08/17 05:03:21;;;;;;;6.88;6.18;;;24.80;55.10;;;;;;4991491;28;20402;-73
2022/08/17 05:05:48;;;;;;;7.10;6.50;;;24.70;55.30;;;;;;4992640;28;20830;-72
2022/08/17 05:08:15;;;;;;;7.35;6.65;;;24.70;55.10;;;;;;4992726;28;20386;-71
2022/08/17 05:10:41;;;;;;;8.13;7.47;;;24.70;55.10;;;;;;4992803;28;20395;-72
2022/08/17 05:13:17;;;;;;;7.63;7.03;;;24.70;55.10;;;;;;4992690;28;20390;-73
2022/08/17 05:15:44;;;;;;;7.82;7.03;;;24.70;55.20;;;;;;4992471;28;20425;-72
2022/08/17 05:18:10;;;;;;;7.97;7.38;;;24.70;55.20;;;;;;4975187;28;20398;-72
2022/08/17 05:20:38;;;;;;;8.45;7.75;;;24.70;55.20;;;;;;4992322;28;20406;-72
2022/08/17 05:23:08;;;;;;;8.23;7.45;;;24.70;55.20;;;;;;4974754;28;20408;-73
2022/08/17 05:25:38;;;;;;;7.95;7.35;;;24.70;55.20;;;;;;4992139;28;20915;-72
2022/08/17 05:28:05;;;;;;;7.75;7.20;;;24.70;55.10;;;;;;4992486;28;20823;-72
2022/08/17 05:30:32;;;;;;;8.30;7.53;;;24.70;55.10;;;;;;4996288;28;20882;-73
2022/08/17 05:33:05;;;;;;;7.78;7.18;;;24.70;55.20;;;;;;4998773;28;20398;-73
2022/08/17 05:35:33;;;;;;;8.15;7.55;;;24.70;55.20;;;;;;4998880;28;20448;-73
2022/08/17 05:37:59;;;;;;;8.35;7.75;;;24.70;55.20;;;;;;4998665;28;20434;-72
2022/08/17 05:40:25;;;;;;;8.55;7.90;;;24.70;55.20;;;;;;4997598;28;20461;-72
2022/08/17 05:43:13;;;;;;;8.45;7.85;;;24.70;55.20;;;;;;4998829;28;20394;-73
2022/08/17 05:46:00;;;;;;;9.13;8.32;;;24.70;55.30;;;;;;4981283;28;20418;-72
2022/08/17 05:48:32;;;;;;;8.60;7.90;;;24.70;55.30;;;;;;4968091;28;20496;-71
2022/08/17 05:51:16;;;;;;;9.20;8.40;;;24.70;55.20;;;;;;4981058;28;20576;-73
2022/08/17 05:54:19;;;;;;;9.73;9.00;;;24.70;55.30;;;;;;4998524;28;20390;-72
2022/08/17 05:56:47;;;;;;;9.32;8.73;;;24.70;55.30;;;;;;4997158;28;20452;-72
2022/08/17 05:59:32;;;;;;;10.55;9.82;;;24.70;55.30;;;;;;4998579;28;20897;-72
2022/08/17 06:02:19;;;;;;;10.65;9.85;;;24.70;55.40;;;;;;4998588;28;20440;-72
2022/08/17 06:04:54;;;;;;;10.70;9.90;;;24.70;55.40;;;;;;4980783;28;20934;-73
2022/08/17 06:07:30;;;;;;;10.43;9.63;;;24.70;55.40;;;;;;4980772;28;20795;-72
2022/08/17 06:10:08;;;;;;;10.32;9.57;;;24.70;55.50;;;;;;4998355;28;20408;-72
2022/08/17 06:13:01;;;;;;;10.13;9.43;;;24.70;55.50;;;;;;4981051;28;20398;-73
2022/08/17 06:15:55;;;;;;;10.27;9.48;;;24.70;55.50;;;;;;4998640;28;20906;-72
2022/08/17 06:18:24;;;;;;;11.20;10.50;;;24.70;55.50;;;;;;4998622;28;20405;-73
2022/08/17 06:21:00;;;;;;;10.43;9.73;;;24.70;55.50;;;;;;4998440;28;20382;-73
2022/08/17 06:23:32;;;;;;;10.02;9.25;;;24.70;55.50;;;;;;4998614;28;20386;-73
2022/08/17 06:26:04;;;;;;;9.70;9.00;;;24.70;55.50;;;;;;4998593;28;20402;-72
2022/08/17 06:28:38;;;;;;;10.17;9.47;;;24.70;55.50;;;;;;4981216;28;20390;-72
2022/08/17 06:31:19;;;;;;;9.63;9.00;;;24.70;55.50;;;;;;4980876;28;20797;-72
2022/08/17 06:33:46;;;;;;;10.38;9.68;;;24.70;55.50;;;;;;4998456;28;20393;-72
2022/08/17 06:36:48;;;;;;;9.90;9.10;;;24.80;55.60;;;;;;4997253;28;20445;-72
2022/08/17 06:39:25;;;;;;;9.35;8.75;;;24.70;55.50;;;;;;4967855;28;20428;-72
2022/08/17 06:42:39;;;;;;;10.15;9.45;;;24.80;55.60;;;;;;4977974;28;20390;-73
2022/08/17 06:45:16;;;;;;;11.20;10.50;;;24.80;55.60;;;;;;4966900;28;20937;-72
2022/08/17 06:47:58;;;;;;;10.83;10.13;;;24.80;55.50;;;;;;4974941;28;20759;-72
2022/08/17 06:50:35;;;;;;;10.23;9.52;;;24.80;55.60;;;;;;4977753;28;20481;-72
2022/08/17 06:53:23;;;;;;;10.98;10.27;;;24.80;55.50;;;;;;4995171;28;20387;-72
2022/08/17 06:55:55;;;;;;;12.07;11.37;;;24.80;55.60;;;;;;4995170;28;20448;-72
2022/08/17 06:58:23;;;;;;;11.40;10.70;;;24.80;55.60;;;;;;4995054;28;20394;-72
2022/08/17 07:00:52;;;;;;;12.07;11.30;;;24.80;55.60;;;;;;4994952;28;20402;-73
2022/08/17 07:03:53;;;;;;;11.27;10.57;;;24.80;55.70;;;;;;4994893;28;20395;-72
2022/08/17 07:06:23;;;;;;;11.65;10.95;;;24.80;55.60;;;;;;4918941;29;20760;-72
2022/08/17 07:09:13;;;;;;;11.43;10.73;;;24.80;55.60;;;;;;4970039;28;20457;-72
2022/08/17 07:12:01;;;;;;;11.85;11.15;;;24.80;55.70;;;;;;4994595;28;20401;-72
2022/08/17 07:14:26;;;;;;;11.27;10.50;;;24.80;55.60;;;;;;4993370;28;20497;-72
2022/08/17 07:16:55;;;;;;;10.93;10.23;;;24.90;55.70;;;;;;4994391;28;20470;-72
2022/08/17 07:19:25;;;;;;;12.43;11.73;;;24.90;55.70;;;;;;4994375;28;20406;-73
2022/08/17 07:22:25;;;;;;;11.32;10.63;;;24.80;55.60;;;;;;4977096;28;20386;-72
2022/08/17 07:24:59;;;;;;;11.93;11.23;;;24.90;55.70;;;;;;4994474;28;20419;-73
2022/08/17 07:27:37;;;;;;;12.88;12.18;;;24.90;55.70;;;;;;4994581;28;20387;-72
2022/08/17 07:30:16;;;;;;;12.38;11.68;;;24.90;55.70;;;;;;4994571;28;20406;-72
2022/08/17 07:32:58;;;;;;;12.02;11.32;;;24.90;55.70;;;;;;4977072;28;20398;-73
2022/08/17 07:35:38;;;;;;;14.68;13.88;;;24.90;55.80;;;;;;4994415;28;20599;-73
2022/08/17 07:38:23;;;;;;;14.38;13.57;;;24.90;55.80;;;;;;4994077;28;20425;-72
2022/08/17 07:41:01;;;;;;;14.90;14.00;;;24.90;55.70;;;;;;4994307;28;20399;-72
2022/08/17 07:43:39;;;;;;;13.70;12.80;;;24.90;55.70;;;;;;4976859;28;20403;-72
2022/08/17 07:49:02;;;;;;;13.88;13.07;;;24.90;55.70;;;;;;4994577;28;20512;-72
2022/08/17 07:51:31;;;;;;;13.27;12.55;;;24.90;55.80;;;;;;4994214;28;20477;-72
2022/08/17 07:54:00;;;;;;;13.63;12.82;;;24.90;55.80;;;;;;4993851;28;20413;-72
2022/08/17 07:56:36;;;;;;;13.45;12.75;;;24.90;55.80;;;;;;4993778;28;20422;-72
2022/08/17 07:59:13;;;;;;;14.15;13.35;;;24.90;55.80;;;;;;4976581;28;20398;-72
2022/08/17 08:01:39;;;;;;;12.73;12.02;;;24.90;55.80;;;;;;4976356;28;20473;-72
2022/08/17 08:04:41;;;;;;;13.60;12.80;;;24.90;55.80;;;;;;4993606;28;20454;-72
2022/08/17 08:07:12;;;;;;;13.13;12.32;;;24.90;55.80;;;;;;4994021;28;20379;-73
2022/08/17 08:09:44;;;;;;;13.93;13.13;;;25.00;55.90;;;;;;4993817;28;20418;-72
2022/08/17 08:12:22;;;;;;;13.13;12.43;;;24.90;55.90;;;;;;4976348;28;20391;-73
2022/08/17 08:14:58;;;;;;;13.48;12.68;;;25.00;55.80;;;;;;4993539;28;20395;-73
2022/08/17 08:17:35;;;;;;;13.30;12.50;;;25.00;56.00;;;;;;4993336;28;20394;-72
2022/08/17 08:20:09;;;;;;;13.10;12.40;;;25.00;55.90;;;;;;4975985;28;20386;-72
2022/08/17 08:22:56;;;;;;;12.82;12.13;;;25.00;55.90;;;;;;4976168;28;20398;-73
2022/08/17 08:25:24;;;;;;;12.10;11.40;;;25.00;55.80;;;;;;4975945;28;20422;-72
2022/08/17 08:28:00;;;;;;;12.75;12.00;;;25.00;55.90;;;;;;4993468;28;20481;-72
2022/08/17 08:30:27;;;;;;;12.27;11.57;;;25.00;56.00;;;;;;4993368;28;20767;-72
2022/08/17 08:33:38;;;;;;;11.70;11.10;;;25.00;55.90;;;;;;4975905;28;20497;-73
2022/08/17 08:36:42;;;;;;;12.32;11.63;;;25.00;55.90;;;;;;4990248;28;20763;-72
2022/08/17 08:39:27;;;;;;;12.23;11.52;;;25.00;55.80;;;;;;4993202;28;20474;-72
2022/08/17 08:42:22;;;;;;;12.88;12.18;;;25.00;55.80;;;;;;4992959;28;20399;-73
2022/08/17 08:45:08;;;;;;;12.38;11.68;;;25.00;55.80;;;;;;4975161;28;20521;-72
2022/08/17 08:47:52;;;;;;;12.55;11.85;;;25.00;55.70;;;;;;4974214;28;20430;-73
2022/08/17 08:50:41;;;;;;;12.40;11.70;;;25.00;55.70;;;;;;4975619;28;20918;-73
2022/08/17 08:53:26;;;;;;;11.82;11.13;;;25.00;55.70;;;;;;4992910;28;20386;-72
2022/08/17 08:56:05;;;;;;;12.52;11.82;;;25.00;55.70;;;;;;4975409;28;20494;-73
2022/08/17 08:58:40;;;;;;;12.00;11.30;;;25.00;55.70;;;;;;4992756;28;20484;-72
2022/08/17 09:01:16;;;;;;;11.30;10.60;;;25.00;55.70;;;;;;4975608;28;20407;-72
2022/08/17 09:03:53;;;;;;;12.00;11.30;;;25.10;55.70;;;;;;4992677;28;20443;-73
2022/08/17 09:07:03;;;;;;;11.27;10.68;;;25.10;55.70;;;;;;4992269;28;20394;-72
2022/08/17 09:09:32;;;;;;;11.90;11.23;;;25.10;55.60;;;;;;4959917;28;20390;-73
2022/08/17 09:12:14;;;;;;;11.60;10.93;;;25.10;55.60;;;;;;4975115;28;20458;-72
2022/08/17 09:14:49;;;;;;;10.82;10.23;;;25.10;55.60;;;;;;4992510;28;20403;-72
2022/08/17 09:17:20;;;;;;;11.07;10.48;;;25.10;55.60;;;;;;4975273;28;20425;-72
2022/08/17 09:20:01;;;;;;;10.40;9.80;;;25.10;55.60;;;;;;4975248;28;20418;-73
2022/08/17 09:22:41;;;;;;;10.70;10.05;;;25.10;55.60;;;;;;4975226;28;20405;-72
2022/08/17 09:25:17;;;;;;;11.13;10.52;;;25.10;55.60;;;;;;4992575;28;20422;-72
2022/08/17 09:27:48;;;;;;;10.27;9.67;;;25.10;55.70;;;;;;4992477;28;20390;-72
2022/08/17 09:30:14;;;;;;;11.35;10.68;;;25.10;55.70;;;;;;4975145;28;20456;-72
2022/08/17 09:32:54;;;;;;;10.43;9.80;;;25.10;55.70;;;;;;4974895;28;20482;-72
2022/08/17 09:35:25;;;;;;;11.27;10.67;;;25.10;55.70;;;;;;4992515;28;20402;-72
2022/08/17 09:38:03;;;;;;;10.93;10.33;;;25.10;55.60;;;;;;4992335;28;20838;-72
2022/08/17 09:40:38;;;;;;;11.17;10.47;;;25.10;55.60;;;;;;4992494;28;20399;-73
2022/08/17 09:43:23;;;;;;;10.93;10.33;;;25.10;55.60;;;;;;4975021;28;20453;-72
2022/08/17 09:45:57;;;;;;;11.45;10.77;;;25.10;55.60;;;;;;4992394;28;20418;-73
2022/08/17 09:48:29;;;;;;;11.43;10.80;;;25.10;55.60;;;;;;4992145;28;20493;-72
2022/08/17 09:51:30;;;;;;;11.27;10.57;;;25.10;55.60;;;;;;4992410;28;20395;-72
2022/08/17 09:53:56;;;;;;;12.00;11.40;;;25.10;55.70;;;;;;4991128;28;20449;-73
2022/08/17 09:56:35;;;;;;;13.20;12.50;;;25.10;55.60;;;;;;4974402;28;20418;-72
2022/08/17 09:59:31;;;;;;;13.00;12.30;;;25.10;55.60;;;;;;4974809;28;20394;-72
2022/08/17 10:01:59;;;;;;;11.90;11.20;;;25.10;55.50;;;;;;4978972;28;20394;-70
2022/08/17 10:04:35;;;;;;;13.25;12.55;;;25.10;55.50;;;;;;4992117;28;20418;-72
2022/08/17 10:07:01;;;;;;;12.70;12.00;;;25.10;55.50;;;;;;4991363;28;20400;-72
2022/08/17 10:09:37;;;;;;;12.53;11.83;;;25.10;55.50;;;;;;4992062;28;20814;-73
2022/08/17 10:12:37;;;;;;;12.57;11.88;;;25.10;56.10;;;;;;4987639;28;20894;-73
2022/08/17 10:15:07;;;;;;;12.55;11.85;;;25.10;55.40;;;;;;4992247;28;20405;-72
2022/08/17 10:17:49;;;;;;;12.07;11.40;;;25.10;55.40;;;;;;4995563;28;20469;-73
2022/08/17 10:20:19;;;;;;;12.23;11.55;;;25.10;55.40;;;;;;4995865;28;20431;-72
2022/08/17 10:28:54;;;;;;;12.43;11.73;;;25.20;55.30;;;;;;5002783;28;20421;-72
2022/08/17 10:31:51;;;;;;;10.63;9.93;;;25.20;55.40;;;;;;5005607;28;20402;-72
2022/08/17 10:34:41;;;;;;;10.13;9.52;;;25.20;55.30;;;;;;4999346;28;20447;-72
2022/08/17 10:37:18;;;;;;;10.10;9.48;;;25.20;55.30;;;;;;5007536;28;20401;-72
2022/08/17 10:39:56;;;;;;;10.05;9.45;;;25.20;55.30;;;;;;4992105;28;20432;-72
2022/08/17 10:42:27;;;;;;;10.02;9.43;;;25.20;55.30;;;;;;4999274;28;20459;-72
2022/08/17 10:45:01;;;;;;;10.55;9.95;;;25.20;55.30;;;;;;5009358;28;20418;-72
2022/08/17 10:47:58;;;;;;;10.73;10.03;;;25.20;55.30;;;;;;4986902;28;20503;-72
2022/08/17 10:51:02;;;;;;;10.27;9.68;;;25.20;55.30;;;;;;4998063;28;20887;-72
2022/08/17 10:53:31;;;;;;;10.75;10.10;;;25.20;55.30;;;;;;4993541;28;21021;-72
2022/08/17 10:56:17;;;;;;;11.02;10.32;;;25.20;55.20;;;;;;4996794;28;20431;-72
2022/08/17 10:58:57;;;;;;;11.80;11.10;;;25.20;55.20;;;;;;4998494;28;20391;-72
2022/08/17 11:01:36;;;;;;;11.27;10.57;;;25.20;55.30;;;;;;5013070;28;20409;-72
2022/08/17 11:04:17;;;;;;;10.40;9.80;;;25.20;55.20;;;;;;5012853;28;20998;-72
2022/08/17 11:07:07;;;;;;;10.52;9.93;;;25.20;55.20;;;;;;4998279;28;20400;-72
2022/08/17 11:10:00;;;;;;;11.48;10.80;;;25.20;55.20;;;;;;4996491;28;20412;-72
2022/08/17 11:12:54;;;;;;;10.68;10.07;;;25.20;55.20;;;;;;4997820;28;20398;-72
2022/08/17 11:15:41;;;;;;;12.07;11.38;;;25.20;55.20;;;;;;5000356;28;20410;-72
2022/08/17 11:18:38;;;;;;;10.95;10.35;;;25.20;55.20;;;;;;5008187;28;20873;-72
2022/08/17 11:21:12;;;;;;;12.23;11.52;;;25.30;55.20;;;;;;5009321;28;20399;-72
2022/08/17 11:23:51;;;;;;;11.93;11.23;;;25.30;55.20;;;;;;5002380;28;20456;-72
2022/08/17 11:26:29;;;;;;;11.45;10.75;;;25.30;55.10;;;;;;5010129;28;20762;-72
2022/08/17 11:29:03;;;;;;;11.18;10.48;;;25.30;55.10;;;;;;4998882;28;20423;-72
2022/08/17 11:31:43;;;;;;;10.80;10.20;;;25.30;55.10;;;;;;4986137;28;20449;-72
2022/08/17 11:34:21;;;;;;;11.60;10.90;;;25.30;55.30;;;;;;5009318;28;20465;-73
2022/08/17 11:37:05;;;;;;;11.65;10.95;;;25.30;55.10;;;;;;4998337;28;20471;-73
2022/08/17 11:40:03;;;;;;;11.77;11.07;;;25.30;55.10;;;;;;4995971;28;20401;-72
2022/08/17 11:42:48;;;;;;;11.53;10.83;;;25.30;55.10;;;;;;4995986;28;20487;-73
2022/08/17 11:45:16;;;;;;;11.52;10.82;;;25.30;55.00;;;;;;5005462;28;20415;-73
2022/08/17 11:53:52;;;;;;;10.40;9.80;;;25.30;55.10;;;;;;5013337;28;20435;-73
2022/08/17 11:56:32;;;;;;;11.15;10.45;;;25.30;55.00;;;;;;4995127;28;20397;-72
2022/08/17 11:58:59;;;;;;;11.45;10.85;;;25.30;55.10;;;;;;4999334;28;20401;-73
2022/08/17 12:01:28;;;;;;;11.48;10.77;;;25.30;55.10;;;;;;5003586;28;20393;-73
2022/08/17 12:04:20;;;;;;;11.07;10.48;;;25.30;55.10;;;;;;4989327;28;20488;-72
2022/08/17 12:06:58;;;;;;;11.00;10.30;;;25.30;55.00;;;;;;4990188;28;20414;-72
2022/08/17 12:09:29;;;;;;;10.50;9.90;;;25.30;55.00;;;;;;5004860;28;20397;-73
2022/08/17 12:12:19;;;;;;;10.70;10.10;;;25.30;55.00;;;;;;5001395;28;20407;-72
2022/08/17 12:15:06;;;;;;;11.10;10.50;;;25.30;55.00;;;;;;4987202;28;20402;-73
2022/08/17 12:17:34;;;;;;;10.50;9.90;;;25.30;55.00;;;;;;4995106;28;20394;-73
2022/08/17 12:20:22;;;;;;;10.82;10.20;;;25.30;55.00;;;;;;4993416;28;20457;-73
2022/08/17 12:23:03;;;;;;;10.02;9.40;;;25.30;54.90;;;;;;4993307;28;20406;-73
2022/08/17 12:26:02;;;;;;;10.13;9.33;;;25.30;55.10;;;;;;4993504;28;20465;-72
2022/08/17 12:28:32;;;;;;;10.15;9.55;;;25.30;55.20;;;;;;4985931;28;20434;-73
2022/08/17 12:31:25;;;;;;;9.75;9.05;;;25.30;55.10;;;;;;4975707;28;20930;-72
2022/08/17 12:33:52;;;;;;;10.35;9.75;;;25.30;55.10;;;;;;4987950;28;20461;-72
2022/08/17 12:36:27;;;;;;;10.18;9.48;;;25.30;55.10;;;;;;4993019;28;20789;-73
2022/08/17 12:39:06;;;;;;;9.45;8.85;;;25.30;55.10;;;;;;4992695;28;20402;-73
2022/08/17 12:41:41;;;;;;;9.10;8.50;;;25.40;55.10;;;;;;4992941;28;20387;-74
2022/08/17 12:44:32;;;;;;;9.40;8.80;;;25.30;55.10;;;;;;4993036;28;20414;-73
2022/08/17 12:47:13;;;;;;;9.70;9.10;;;25.40;55.10;;;;;;4971278;28;20402;-72
2022/08/17 12:49:41;;;;;;;9.15;8.55;;;25.40;55.10;;;;;;4992994;28;20795;-73
2022/08/17 12:52:13;;;;;;;10.10;9.45;;;25.40;55.10;;;;;;4993075;28;20456;-73
2022/08/17 12:54:59;;;;;;;9.32;8.68;;;25.40;55.10;;;;;;4975619;28;20400;-73
2022/08/17 12:57:37;;;;;;;9.68;9.07;;;25.40;55.10;;;;;;4975675;28;20406;-72
2022/08/17 13:00:20;;;;;;;9.38;8.77;;;25.40;55.10;;;;;;4993002;28;20394;-72
2022/08/17 13:02:50;;;;;;;9.10;8.50;;;25.40;55.10;;;;;;4992890;28;20390;-72
2022/08/17 13:05:20;;;;;;;9.38;8.77;;;25.40;55.10;;;;;;4975300;28;20550;-72
2022/08/17 13:07:46;;;;;;;9.52;8.93;;;25.40;55.00;;;;;;4992745;28;20425;-72
2022/08/17 13:10:30;;;;;;;9.93;9.33;;;25.40;55.10;;;;;;4975423;28;20883;-73
2022/08/17 13:12:56;;;;;;;9.68;9.07;;;25.40;55.10;;;;;;4975343;28;20394;-72
2022/08/17 13:15:50;;;;;;;9.95;9.25;;;25.40;55.10;;;;;;4992845;28;20483;-72
2022/08/17 13:18:45;;;;;;;9.48;8.88;;;25.40;55.10;;;;;;4992613;28;20476;-72
2022/08/17 13:21:26;;;;;;;9.20;8.60;;;25.50;55.20;;;;;;4992800;28;20482;-73
2022/08/17 13:24:01;;;;;;;9.45;8.85;;;25.40;55.10;;;;;;4992549;28;20758;-73
2022/08/17 13:26:40;;;;;;;9.27;8.63;;;25.50;55.20;;;;;;4992722;28;20477;-72
2022/08/17 13:29:24;;;;;;;9.60;8.95;;;25.50;55.10;;;;;;4970834;28;20410;-72
2022/08/17 13:32:06;;;;;;;9.53;8.93;;;25.50;55.10;;;;;;4992620;28;20875;-72
2022/08/17 13:34:43;;;;;;;8.63;8.02;;;25.50;55.10;;;;;;4992566;28;20863;-72
2022/08/17 13:37:25;;;;;;;9.00;8.40;;;25.40;55.00;;;;;;4992339;28;20893;-73
2022/08/17 13:39:53;;;;;;;9.40;8.80;;;25.50;55.10;;;;;;4992560;28;20386;-73
2022/08/17 13:42:31;;;;;;;9.80;9.20;;;25.50;55.10;;;;;;4992475;28;20399;-72
2022/08/17 13:44:58;;;;;;;9.65;9.05;;;25.50;55.10;;;;;;4974703;28;20468;-73
2022/08/17 13:47:24;;;;;;;9.35;8.75;;;25.50;55.20;;;;;;4992201;28;20399;-72
2022/08/17 13:49:49;;;;;;;9.80;9.10;;;25.50;55.20;;;;;;4992383;28;20428;-72